createdAt,value
2023-09-15T00:01:50.641Z,86.17
2023-09-15T00:04:17.304Z,86.70
2023-09-15T00:06:47.787Z,86.27
2023-09-15T00:09:16.378Z,86.48
2023-09-15T00:11:43.318Z,86.65
2023-09-15T00:14:15.205Z,86.47
2023-09-15T00:16:44.135Z,86.85
2023-09-15T00:19:15.368Z,86.86
2023-09-15T00:21:43.401Z,87.39
2023-09-15T00:24:10.405Z,87.26
2023-09-15T00:26:37.197Z,87.35
2023-09-15T00:29:05.321Z,87.17
2023-09-15T00:31:32.186Z,86.79
2023-09-15T00:33:58.834Z,87.02
2023-09-15T00:36:25.372Z,86.95
2023-09-15T00:38:52.210Z,87.20
2023-09-15T00:41:19.129Z,87.63
2023-09-15T00:43:45.728Z,87.50
2023-09-15T00:46:13.061Z,87.29
2023-09-15T00:48:40.990Z,87.31
2023-09-15T00:51:08.984Z,87.60
2023-09-15T00:53:38.409Z,87.45
2023-09-15T00:56:06.758Z,87.63
2023-09-15T00:58:34.000Z,87.75
2023-09-15T01:01:01.365Z,87.76
2023-09-15T01:03:31.981Z,87.69
2023-09-15T01:05:58.716Z,87.58
2023-09-15T01:08:25.329Z,87.47
2023-09-15T01:10:51.894Z,87.86
2023-09-15T01:13:18.762Z,88.10
2023-09-15T01:16:19.989Z,88.53
2023-09-15T01:18:58.005Z,88.35
2023-09-15T01:21:56.222Z,88.03
2023-09-15T01:24:42.264Z,88.14
2023-09-15T01:27:21.006Z,88.05
2023-09-15T01:29:55.283Z,88.24
2023-09-15T01:32:23.671Z,88.33
2023-09-15T01:34:52.526Z,88.52
2023-09-15T01:37:19.728Z,88.27
2023-09-15T01:39:46.543Z,87.94
2023-09-15T01:42:13.374Z,87.84
2023-09-15T01:44:39.966Z,87.79
2023-09-15T01:47:09.839Z,88.15
2023-09-15T01:49:38.740Z,88.36
2023-09-15T01:52:06.244Z,88.55
2023-09-15T01:54:32.896Z,88.66
2023-09-15T01:56:59.657Z,87.85
2023-09-15T01:59:26.221Z,88.92
2023-09-15T02:01:52.963Z,88.60
2023-09-15T02:04:19.565Z,88.63
2023-09-15T02:06:46.236Z,88.66
2023-09-15T02:09:16.014Z,88.94
2023-09-15T02:11:43.324Z,88.99
2023-09-15T02:14:09.907Z,89.12
2023-09-15T02:16:36.543Z,89.17
2023-09-15T02:19:04.070Z,89.11
2023-09-15T02:21:30.926Z,89.71
2023-09-15T02:23:57.441Z,90.28
2023-09-15T02:26:24.118Z,91.51
2023-09-15T02:28:51.572Z,90.93
2023-09-15T02:31:19.222Z,90.76
2023-09-15T02:33:46.578Z,90.84
2023-09-15T02:36:13.377Z,91.14
2023-09-15T02:38:39.918Z,91.05
2023-09-15T02:41:06.469Z,91.13
2023-09-15T02:43:33.273Z,91.24
2023-09-15T02:46:04.727Z,91.14
2023-09-15T02:48:31.627Z,90.96
2023-09-15T02:50:59.789Z,90.82
2023-09-15T02:53:26.430Z,90.53
2023-09-15T02:56:06.439Z,90.79
2023-09-15T02:58:33.596Z,91.07
2023-09-15T03:01:00.413Z,91.07
2023-09-15T03:03:27.370Z,91.12
2023-09-15T03:06:07.247Z,91.12
2023-09-15T03:08:34.968Z,91.43
2023-09-15T03:11:01.921Z,91.34
2023-09-15T03:13:28.613Z,91.28
2023-09-15T03:15:55.357Z,91.57
2023-09-15T03:18:22.998Z,91.61
2023-09-15T03:20:49.503Z,91.15
2023-09-15T03:23:17.399Z,91.38
2023-09-15T03:25:44.016Z,91.62
2023-09-15T03:28:11.711Z,91.87
2023-09-15T03:30:40.582Z,91.70
2023-09-15T03:33:08.306Z,92.21
2023-09-15T03:35:35.218Z,91.75
2023-09-15T03:38:01.828Z,91.98
2023-09-15T03:40:31.134Z,92.34
2023-09-15T03:42:57.644Z,91.95
2023-09-15T03:45:24.473Z,92.41
2023-09-15T03:47:50.982Z,92.27
2023-09-15T03:50:22.533Z,92.18
2023-09-15T03:52:49.370Z,92.17
2023-09-15T03:55:18.485Z,92.56
2023-09-15T03:57:45.375Z,92.31
2023-09-15T04:00:17.727Z,92.25
2023-09-15T04:02:45.057Z,92.26
2023-09-15T04:05:11.745Z,92.67
2023-09-15T04:07:39.383Z,92.74
2023-09-15T04:10:06.989Z,92.90
2023-09-15T04:12:35.291Z,92.92
2023-09-15T04:15:02.155Z,92.93
2023-09-15T04:17:28.741Z,92.83
2023-09-15T04:19:55.701Z,92.74
2023-09-15T04:22:22.472Z,92.67
2023-09-15T04:24:49.008Z,92.47
2023-09-15T04:27:15.571Z,92.75
2023-09-15T04:29:56.730Z,92.70
2023-09-15T04:32:23.488Z,92.25
2023-09-15T04:34:54.219Z,92.52
2023-09-15T04:37:22.051Z,92.68
2023-09-15T04:39:52.638Z,93.42
2023-09-15T04:42:19.317Z,93.48
2023-09-15T04:44:46.066Z,92.75
2023-09-15T04:47:31.208Z,92.38
2023-09-15T04:49:58.064Z,92.53
2023-09-15T04:52:24.828Z,93.08
2023-09-15T04:54:51.726Z,93.46
2023-09-15T04:57:20.147Z,92.99
2023-09-15T04:59:47.729Z,92.58
2023-09-15T05:02:14.751Z,93.15
2023-09-15T05:04:41.587Z,93.14
2023-09-15T05:07:09.020Z,92.91
2023-09-15T05:09:35.712Z,93.12
2023-09-15T05:12:02.332Z,92.85
2023-09-15T05:14:28.818Z,92.39
2023-09-15T05:16:55.666Z,92.50
2023-09-15T05:19:22.509Z,92.14
2023-09-15T05:21:49.197Z,91.72
2023-09-15T05:24:15.881Z,91.57
2023-09-15T05:26:42.594Z,91.94
2023-09-15T05:29:09.848Z,91.55
2023-09-15T05:31:36.616Z,90.66
2023-09-15T05:34:04.071Z,89.79
2023-09-15T05:36:30.946Z,90.04
2023-09-15T05:38:57.890Z,89.18
2023-09-15T05:41:24.768Z,88.80
2023-09-15T05:43:51.484Z,88.72
2023-09-15T05:46:19.306Z,88.53
2023-09-15T05:48:46.579Z,88.61
2023-09-15T05:51:13.498Z,87.87
2023-09-15T05:53:40.277Z,87.50
2023-09-15T05:56:07.036Z,86.72
2023-09-15T05:58:33.652Z,86.16
2023-09-15T06:01:00.590Z,86.04
2023-09-15T06:03:27.270Z,85.72
2023-09-15T06:05:54.011Z,85.46
2023-09-15T06:08:20.775Z,84.63
2023-09-15T06:10:49.920Z,83.83
2023-09-15T06:13:18.564Z,83.56
2023-09-15T06:15:45.527Z,83.00
2023-09-15T06:18:12.073Z,82.28
2023-09-15T06:20:39.431Z,81.11
2023-09-15T06:23:06.055Z,80.46
2023-09-15T06:25:33.348Z,80.21
2023-09-15T06:28:14.951Z,79.64
2023-09-15T06:30:47.175Z,79.41
2023-09-15T06:33:13.809Z,78.69
2023-09-15T06:35:40.322Z,78.66
2023-09-15T06:38:08.127Z,78.27
2023-09-15T06:40:36.436Z,78.82
2023-09-15T06:43:09.034Z,78.13
2023-09-15T06:45:36.079Z,77.36
2023-09-15T06:48:03.342Z,77.16
2023-09-15T06:50:30.223Z,77.40
2023-09-15T06:52:56.849Z,76.75
2023-09-15T06:55:23.552Z,76.20
2023-09-15T06:57:51.648Z,75.00
2023-09-15T07:00:19.427Z,74.35
2023-09-15T07:02:46.288Z,72.91
2023-09-15T07:05:13.415Z,70.91
2023-09-15T07:07:43.237Z,70.62
2023-09-15T07:10:10.247Z,66.17
2023-09-15T07:12:38.256Z,59.29
2023-09-15T07:15:06.431Z,54.63
2023-09-15T07:17:33.379Z,49.60
2023-09-15T07:20:00.392Z,48.00
2023-09-15T07:22:28.716Z,43.99
2023-09-15T07:24:56.160Z,42.47
2023-09-15T07:27:24.733Z,39.29
2023-09-15T07:29:51.656Z,39.03
2023-09-15T07:32:23.200Z,40.19
2023-09-15T07:34:51.016Z,35.84
2023-09-15T07:37:19.587Z,33.70
2023-09-15T07:39:47.195Z,32.14
2023-09-15T07:42:13.983Z,32.10
2023-09-15T07:47:25.721Z,31.57
2023-09-15T07:49:53.866Z,32.68
2023-09-15T07:52:27.448Z,35.29
2023-09-15T07:54:54.725Z,33.68
2023-09-15T07:57:21.518Z,32.25
2023-09-15T07:59:49.382Z,32.71
2023-09-15T08:02:19.592Z,33.30
2023-09-15T08:04:46.308Z,34.58
2023-09-15T08:07:13.159Z,32.18
2023-09-15T08:09:40.115Z,30.67
2023-09-15T08:12:07.514Z,30.23
2023-09-15T08:14:33.984Z,31.37
2023-09-15T08:17:01.558Z,33.53
2023-09-15T08:19:29.084Z,34.02
2023-09-15T08:21:55.915Z,36.51
2023-09-15T08:24:22.648Z,41.05
2023-09-15T08:26:49.292Z,45.23
2023-09-15T08:29:15.889Z,45.60
2023-09-15T08:31:42.648Z,47.41
2023-09-15T08:34:09.330Z,48.77
2023-09-15T08:36:36.095Z,49.96
2023-09-15T08:39:03.572Z,49.11
2023-09-15T08:41:40.335Z,48.35
2023-09-15T08:44:10.502Z,48.83
2023-09-15T08:46:41.233Z,48.58
2023-09-15T08:49:10.048Z,49.63
2023-09-15T08:51:40.611Z,49.78
2023-09-15T08:54:07.798Z,48.37
2023-09-15T08:56:34.599Z,49.25
2023-09-15T08:59:02.346Z,50.33
2023-09-15T09:01:29.192Z,49.25
2023-09-15T09:03:55.940Z,50.39
2023-09-15T09:06:25.017Z,49.91
2023-09-15T09:08:51.663Z,49.74
2023-09-15T09:11:19.380Z,50.32
2023-09-15T09:13:54.320Z,50.94
2023-09-15T09:16:22.345Z,50.78
2023-09-15T09:19:00.379Z,50.40
2023-09-15T09:21:28.560Z,50.44
2023-09-15T09:23:56.592Z,50.27
2023-09-15T09:26:23.561Z,50.82
2023-09-15T09:28:50.914Z,48.69
2023-09-15T09:31:19.270Z,47.59
2023-09-15T09:33:45.897Z,48.23
2023-09-15T09:36:17.324Z,49.02
2023-09-15T09:38:47.628Z,48.19
2023-09-15T09:41:17.572Z,49.81
2023-09-15T09:43:48.553Z,48.69
2023-09-15T09:46:18.592Z,48.62
2023-09-15T09:48:46.513Z,48.33
2023-09-15T09:51:19.491Z,49.48
2023-09-15T09:53:46.127Z,49.81
2023-09-15T09:56:12.649Z,48.32
2023-09-15T09:58:42.012Z,48.58
2023-09-15T10:01:11.187Z,49.88
2023-09-15T10:03:37.775Z,48.41
2023-09-15T10:06:07.485Z,48.67
2023-09-15T10:08:34.543Z,48.66
2023-09-15T10:11:01.575Z,49.09
2023-09-15T10:13:30.586Z,48.96
2023-09-15T10:15:58.021Z,50.29
2023-09-15T10:18:25.847Z,48.48
2023-09-15T10:20:56.893Z,49.41
2023-09-15T10:23:24.385Z,49.72
2023-09-15T10:25:52.945Z,47.78
2023-09-15T10:28:39.338Z,47.72
2023-09-15T10:31:12.622Z,47.28
2023-09-15T10:33:41.754Z,47.85
2023-09-15T10:36:14.159Z,47.22
2023-09-15T10:38:42.757Z,47.19
2023-09-15T10:41:12.060Z,47.71
2023-09-15T10:43:50.862Z,47.05
2023-09-15T10:46:19.168Z,47.45
2023-09-15T10:48:48.498Z,46.50
2023-09-15T10:51:24.139Z,46.15
2023-09-15T10:53:57.596Z,46.68
2023-09-15T10:56:25.541Z,46.32
2023-09-15T10:58:52.139Z,46.92
2023-09-15T11:01:21.133Z,45.27
2023-09-15T11:03:48.805Z,45.24
2023-09-15T11:06:17.237Z,46.55
2023-09-15T11:08:44.383Z,44.71
2023-09-15T11:11:11.990Z,46.87
2023-09-15T11:13:40.639Z,44.75
2023-09-15T11:16:08.974Z,44.49
2023-09-15T11:18:37.621Z,44.88
2023-09-15T11:21:06.294Z,44.46
2023-09-15T11:23:36.054Z,44.66
2023-09-15T11:26:16.924Z,43.34
2023-09-15T11:28:43.965Z,43.69
2023-09-15T11:31:12.054Z,44.06
2023-09-15T11:33:43.713Z,43.76
2023-09-15T11:36:11.218Z,43.51
2023-09-15T11:38:41.478Z,43.13
2023-09-15T11:41:08.156Z,42.38
2023-09-15T11:43:36.211Z,42.65
2023-09-15T11:46:08.814Z,42.80
2023-09-15T11:48:39.786Z,43.37
2023-09-15T11:51:11.210Z,43.42
2023-09-15T11:53:41.348Z,43.10
2023-09-15T11:56:09.224Z,43.14
2023-09-15T11:58:35.873Z,43.50
2023-09-15T12:01:03.081Z,43.34
2023-09-15T12:03:33.002Z,43.59
2023-09-15T12:06:02.069Z,42.59
2023-09-15T12:08:28.888Z,42.32
2023-09-15T12:11:10.140Z,42.71
2023-09-15T12:13:39.724Z,42.12
2023-09-15T12:16:06.960Z,41.52
2023-09-15T12:18:40.041Z,41.32
2023-09-15T12:21:13.460Z,42.23
2023-09-15T12:23:42.501Z,41.54
2023-09-15T12:26:12.288Z,42.11
2023-09-15T12:28:39.326Z,42.48
2023-09-15T12:31:06.133Z,41.42
2023-09-15T12:33:33.668Z,41.50
2023-09-15T12:36:07.406Z,41.55
2023-09-15T12:38:34.023Z,40.73
2023-09-15T12:41:00.822Z,40.69
2023-09-15T12:43:27.680Z,40.59
2023-09-15T12:45:55.125Z,40.82
2023-09-15T12:48:22.885Z,41.54
2023-09-15T12:50:49.670Z,41.60
2023-09-15T12:53:19.158Z,40.73
2023-09-15T12:55:46.616Z,40.59
2023-09-15T12:58:18.471Z,40.39
2023-09-15T13:00:45.291Z,39.83
2023-09-15T13:03:12.058Z,39.68
2023-09-15T13:05:38.820Z,39.86
2023-09-15T13:08:05.518Z,39.75
2023-09-15T13:10:32.123Z,39.30
2023-09-15T13:12:58.970Z,39.82
2023-09-15T13:15:25.629Z,40.17
2023-09-15T13:17:53.528Z,39.84
2023-09-15T13:20:20.365Z,39.25
2023-09-15T13:22:46.862Z,38.95
2023-09-15T13:25:13.674Z,38.80
2023-09-15T13:27:46.277Z,37.76
2023-09-15T13:30:14.848Z,37.52
2023-09-15T13:32:42.297Z,37.24
2023-09-15T13:35:09.528Z,37.67
2023-09-15T13:37:37.930Z,36.65
2023-09-15T13:40:05.725Z,36.43
2023-09-15T13:42:34.078Z,36.78
2023-09-15T13:45:01.672Z,37.70
2023-09-15T13:47:36.403Z,38.15
2023-09-15T13:50:08.771Z,38.50
2023-09-15T13:52:35.317Z,37.97
2023-09-15T13:55:02.078Z,37.45
2023-09-15T13:57:30.166Z,37.03
2023-09-15T13:59:57.708Z,37.09
2023-09-15T14:02:27.742Z,38.13
2023-09-15T14:04:56.255Z,38.88
2023-09-15T14:07:23.259Z,38.75
2023-09-15T14:09:49.779Z,38.31
2023-09-15T14:12:17.289Z,37.55
2023-09-15T14:14:44.437Z,36.55
2023-09-15T14:17:11.198Z,36.24
2023-09-15T14:19:37.946Z,36.92
2023-09-15T14:22:05.130Z,37.09
2023-09-15T14:24:36.179Z,37.72
2023-09-15T14:27:06.153Z,37.28
2023-09-15T14:29:33.687Z,38.25
2023-09-15T14:32:01.985Z,38.51
2023-09-15T14:34:29.188Z,39.23
2023-09-15T14:36:59.751Z,38.56
2023-09-15T14:39:28.566Z,38.19
2023-09-15T14:41:55.689Z,37.95
2023-09-15T14:44:23.168Z,38.39
2023-09-15T14:46:50.037Z,39.12
2023-09-15T14:49:17.258Z,38.49
2023-09-15T14:51:45.364Z,38.85
2023-09-15T14:54:12.073Z,38.79
2023-09-15T14:56:39.048Z,39.19
2023-09-15T14:59:06.593Z,38.18
2023-09-15T15:01:34.242Z,38.41
2023-09-15T15:04:01.209Z,38.28
2023-09-15T15:06:28.087Z,38.58
2023-09-15T15:08:54.766Z,38.39
2023-09-15T15:11:21.389Z,38.70
2023-09-15T15:13:48.682Z,38.29
2023-09-15T15:16:17.447Z,38.38
2023-09-15T15:18:46.659Z,38.02
2023-09-15T15:21:13.992Z,38.19
2023-09-15T15:23:40.963Z,38.37
2023-09-15T15:26:08.490Z,38.42
2023-09-15T15:28:36.210Z,39.00
2023-09-15T15:31:03.449Z,38.59
2023-09-15T15:33:30.207Z,38.97
2023-09-15T15:36:04.152Z,38.85
2023-09-15T15:38:31.342Z,38.69
2023-09-15T15:41:05.240Z,39.13
2023-09-15T15:43:33.544Z,40.09
2023-09-15T15:46:03.147Z,40.01
2023-09-15T15:48:30.902Z,40.53
2023-09-15T15:50:57.661Z,40.84
2023-09-15T15:53:24.526Z,41.04
2023-09-15T15:55:51.156Z,40.60
2023-09-15T15:58:18.907Z,40.90
2023-09-15T16:00:45.968Z,41.61
2023-09-15T16:03:12.640Z,41.10
2023-09-15T16:05:41.137Z,41.40
2023-09-15T16:08:08.473Z,40.97
2023-09-15T16:10:35.300Z,42.19
2023-09-15T16:13:02.677Z,42.69
2023-09-15T16:15:30.554Z,43.19
2023-09-15T16:18:07.988Z,43.56
2023-09-15T16:20:37.030Z,44.49
2023-09-15T16:23:08.954Z,44.69
2023-09-15T16:25:38.784Z,45.17
2023-09-15T16:28:09.124Z,45.58
2023-09-15T16:30:41.461Z,45.73
2023-09-15T16:33:09.758Z,45.80
2023-09-15T16:35:37.153Z,46.19
2023-09-15T16:38:04.862Z,46.58
2023-09-15T16:40:31.814Z,46.73
2023-09-15T16:42:58.439Z,47.39
2023-09-15T16:45:25.792Z,47.44
2023-09-15T16:47:53.402Z,47.61
2023-09-15T16:50:20.902Z,47.44
2023-09-15T16:52:49.013Z,47.78
2023-09-15T16:55:17.421Z,47.35
2023-09-15T16:57:44.576Z,47.62
2023-09-15T17:00:17.935Z,47.91
2023-09-15T17:02:44.533Z,47.78
2023-09-15T17:05:11.873Z,48.51
2023-09-15T17:07:39.818Z,48.42
2023-09-15T17:10:09.562Z,48.93
2023-09-15T17:12:37.281Z,49.42
2023-09-15T17:15:05.503Z,49.98
2023-09-15T17:17:32.458Z,50.44
2023-09-15T17:19:59.392Z,50.31
2023-09-15T17:22:26.787Z,50.79
2023-09-15T17:24:53.408Z,50.96
2023-09-15T17:27:20.160Z,51.40
2023-09-15T17:29:46.878Z,50.85
2023-09-15T17:32:14.201Z,51.07
2023-09-15T17:34:40.826Z,51.28
2023-09-15T17:37:07.650Z,51.88
2023-09-15T17:39:34.265Z,51.64
2023-09-15T17:42:00.833Z,51.77
2023-09-15T17:44:27.658Z,51.78
2023-09-15T17:46:54.190Z,52.14
2023-09-15T17:49:21.168Z,52.10
2023-09-15T17:51:48.039Z,52.51
2023-09-15T17:54:15.034Z,52.48
2023-09-15T17:56:41.570Z,52.98
2023-09-15T17:59:09.460Z,52.68
2023-09-15T18:01:36.337Z,51.69
2023-09-15T18:04:03.475Z,51.95
2023-09-15T18:06:30.430Z,52.04
2023-09-15T18:08:59.031Z,52.58
2023-09-15T18:11:26.249Z,52.41
2023-09-15T18:13:53.589Z,52.06
2023-09-15T18:16:20.902Z,52.44
2023-09-15T18:18:48.789Z,51.83
2023-09-15T18:21:18.228Z,52.02
2023-09-15T18:23:45.377Z,52.12
2023-09-15T18:26:12.201Z,51.49
2023-09-15T18:28:40.226Z,51.91
2023-09-15T18:31:06.828Z,51.90
2023-09-15T18:33:33.458Z,52.30
2023-09-15T18:36:00.106Z,51.83
2023-09-15T18:38:26.591Z,51.69
2023-09-15T18:40:53.130Z,51.49
2023-09-15T18:43:19.776Z,51.12
2023-09-15T18:45:46.440Z,51.00
2023-09-15T18:48:13.024Z,50.98
2023-09-15T18:50:42.270Z,50.97
2023-09-15T18:53:09.047Z,50.89
2023-09-15T18:55:35.655Z,50.83
2023-09-15T18:58:02.168Z,50.74
2023-09-15T19:00:28.690Z,50.78
2023-09-15T19:02:57.956Z,50.88
2023-09-15T19:05:25.603Z,50.80
2023-09-15T19:07:52.210Z,51.17
2023-09-15T19:10:18.922Z,51.45
2023-09-15T19:12:45.653Z,51.54
2023-09-15T19:15:12.181Z,51.77
2023-09-15T19:17:38.761Z,52.27
2023-09-15T19:20:05.899Z,52.32
2023-09-15T19:22:33.236Z,52.25
2023-09-15T19:24:59.925Z,52.94
2023-09-15T19:27:26.636Z,53.02
2023-09-15T19:29:55.386Z,53.22
2023-09-15T19:32:22.011Z,52.96
2023-09-15T19:34:49.102Z,53.15
2023-09-15T19:37:15.668Z,53.36
2023-09-15T19:39:44.334Z,53.62
2023-09-15T19:42:10.951Z,53.65
2023-09-15T19:44:37.468Z,54.11
2023-09-15T19:47:04.156Z,54.26
2023-09-15T19:49:30.836Z,54.69
2023-09-15T19:51:57.518Z,54.16
2023-09-15T19:54:24.015Z,54.38
2023-09-15T19:56:53.204Z,54.47
2023-09-15T19:59:20.621Z,54.94
2023-09-15T20:01:47.244Z,55.02
2023-09-15T20:04:14.865Z,54.91
2023-09-15T20:06:41.747Z,55.03
2023-09-15T20:09:08.415Z,55.25
2023-09-15T20:11:34.998Z,55.69
2023-09-15T20:14:01.977Z,56.18
2023-09-15T20:16:29.363Z,55.93
2023-09-15T20:18:56.878Z,55.94
2023-09-15T20:21:26.331Z,55.76
2023-09-15T20:23:52.941Z,55.91
2023-09-15T20:26:19.867Z,55.60
2023-09-15T20:28:47.617Z,55.96
2023-09-15T20:31:14.749Z,55.65
2023-09-15T20:33:41.560Z,55.56
2023-09-15T20:36:08.291Z,55.60
2023-09-15T20:38:36.262Z,55.68
2023-09-15T20:41:04.753Z,55.48
2023-09-15T20:43:31.431Z,55.73
2023-09-15T20:45:58.345Z,55.99
2023-09-15T20:48:24.960Z,55.47
2023-09-15T20:50:51.584Z,55.47
2023-09-15T20:53:18.484Z,55.40
2023-09-15T20:55:45.349Z,55.45
2023-09-15T20:58:12.097Z,55.54
2023-09-15T21:00:39.076Z,55.71
2023-09-15T21:03:05.800Z,55.92
2023-09-15T21:05:32.291Z,55.98
2023-09-15T21:07:58.794Z,55.85
2023-09-15T21:10:25.315Z,55.90
2023-09-15T21:12:51.842Z,55.94
2023-09-15T21:15:19.954Z,55.97
2023-09-15T21:17:48.422Z,56.46
2023-09-15T21:20:15.863Z,56.17
2023-09-15T21:22:42.737Z,56.50
2023-09-15T21:25:11.626Z,56.68
2023-09-15T21:27:38.123Z,56.58
2023-09-15T21:30:06.051Z,56.75
2023-09-15T21:32:32.708Z,57.06
2023-09-15T21:34:59.253Z,57.25
2023-09-15T21:37:25.994Z,57.39
2023-09-15T21:39:52.552Z,57.47
2023-09-15T21:42:19.235Z,57.20
2023-09-15T21:44:45.885Z,57.50
2023-09-15T21:47:12.546Z,57.70
2023-09-15T21:49:39.113Z,57.97
2023-09-15T21:52:05.961Z,58.07
2023-09-15T21:54:33.046Z,58.25
2023-09-15T21:56:59.680Z,58.86
2023-09-15T21:59:26.223Z,58.88
2023-09-15T22:01:54.645Z,58.79
2023-09-15T22:04:21.545Z,59.76
2023-09-15T22:06:48.233Z,59.44
2023-09-15T22:09:15.924Z,59.92
2023-09-15T22:11:42.545Z,60.03
2023-09-15T22:14:09.613Z,60.29
2023-09-15T22:16:37.039Z,60.72
2023-09-15T22:19:04.027Z,60.49
2023-09-15T22:21:30.745Z,60.83
2023-09-15T22:23:58.726Z,61.05
2023-09-15T22:26:25.650Z,61.09
2023-09-15T22:28:53.832Z,61.03
2023-09-15T22:31:20.890Z,61.11
2023-09-15T22:33:47.843Z,61.02
2023-09-15T22:36:14.430Z,61.07
2023-09-15T22:38:41.286Z,61.19
2023-09-15T22:41:17.216Z,61.20
2023-09-15T22:43:45.743Z,61.68
2023-09-15T22:46:23.949Z,62.00
2023-09-15T22:48:52.172Z,62.03
2023-09-15T22:51:19.031Z,62.01
2023-09-15T22:53:45.830Z,61.73
2023-09-15T22:56:12.521Z,62.04
2023-09-15T22:58:39.024Z,62.32
2023-09-15T23:01:06.352Z,62.07
2023-09-15T23:03:34.269Z,61.85
2023-09-15T23:06:00.923Z,62.73
2023-09-15T23:08:27.435Z,62.81
2023-09-15T23:11:04.879Z,62.45
2023-09-15T23:13:31.401Z,62.60
2023-09-15T23:16:08.143Z,62.84
2023-09-15T23:18:35.266Z,62.33
2023-09-15T23:21:02.161Z,61.96
2023-09-15T23:23:29.416Z,61.93
2023-09-15T23:25:56.325Z,61.80
2023-09-15T23:28:23.001Z,61.50
2023-09-15T23:30:49.550Z,61.45
2023-09-15T23:33:17.125Z,61.04
2023-09-15T23:35:44.354Z,61.40
2023-09-15T23:38:11.215Z,61.46
2023-09-15T23:40:37.698Z,61.76
2023-09-15T23:43:04.641Z,61.87
2023-09-15T23:45:31.996Z,61.42
2023-09-15T23:47:58.636Z,61.84
2023-09-15T23:50:25.399Z,61.44
2023-09-15T23:52:52.108Z,61.72
2023-09-15T23:55:19.077Z,61.99
2023-09-15T23:57:45.649Z,62.25
